logo tempoitalia

Diretta Meteo Coffeyville, Stati Uniti (USA)lunedì 31 agosto ore 00:52

Mappa
Sereno 28 °C Sereno 24 Ore: T.min 23 T.max 39
Ponente Sud Km/h 13 Punto di rugiada: 16 °C Umidità: 48% Visibilità: 10 Km
Il sole sorge alle: 06:52 Il sole tramonta alle: 19:52
31 Agosto 2026 00:52 tempo osservato: Sereno Sereno 28 48 1013 vento: Nord S 13
30 Agosto 2026 23:52 tempo osservato: Sereno Sereno 28 48 1012 vento: Nord S/SE 13
30 Agosto 2026 22:52 tempo osservato: Sereno Sereno 29 42 1012 vento: Nord S 11.1
30 Agosto 2026 21:52 tempo osservato: Sereno Sereno 31 37 1012 vento: Nord S/SE 11.1
30 Agosto 2026 20:52 tempo osservato: Sereno Sereno 32 38 1011 vento: Nord S/SE 11.1
30 Agosto 2026 19:52 tempo osservato: Sereno Sereno 35 32 1011 vento: Nord S 14.8
30 Agosto 2026 18:52 tempo osservato: Sereno Sereno 37 28 1011 vento: Nord S 25.9
30 Agosto 2026 17:52 tempo osservato: Sereno Sereno 38 27 1011 vento: Nord S 27.8
30 Agosto 2026 16:52 tempo osservato: Sereno Sereno 39 26 1011 vento: Nord S 29.6
30 Agosto 2026 15:52 tempo osservato: Sereno Sereno 39 26 1011 vento: Nord S 25.9
30 Agosto 2026 14:52 tempo osservato: Sereno Sereno 38 29 1012 vento: Nord S 31.5
30 Agosto 2026 13:52 tempo osservato: Sereno Sereno 37 30 1013 vento: Nord S 29.6
30 Agosto 2026 12:52 tempo osservato: Sereno Sereno 37 30 1014 vento: Nord S/SO 25.9
30 Agosto 2026 11:52 tempo osservato: Sereno Sereno 35 36 1014 vento: Nord S/SO 22.2
30 Agosto 2026 10:52 tempo osservato: Sereno Sereno 33 38 1015 vento: Nord S 27.8
30 Agosto 2026 09:52 tempo osservato: Sereno Sereno 31 43 1015 vento: Nord S 33.3
30 Agosto 2026 08:52 tempo osservato: Sereno Sereno 27 50 1015 vento: Nord S 22.2
30 Agosto 2026 07:52 tempo osservato: Sereno Sereno 24 60 1015 vento: Nord S/SE 11.1
30 Agosto 2026 06:52 tempo osservato: Sereno Sereno 23 64 1015 vento: Nord S 9.3
30 Agosto 2026 05:52 tempo osservato: Sereno Sereno 23 60 1015 vento: Nord S 9.3
30 Agosto 2026 04:52 tempo osservato: Sereno Sereno 24 57 1014 vento: Nord S 9.3
30 Agosto 2026 03:52 tempo osservato: Sereno Sereno 25 53 1014 vento: Nord S 11.1
30 Agosto 2026 02:52 tempo osservato: Sereno Sereno 26 47 1014 vento: Nord S 14.8
30 Agosto 2026 01:52 tempo osservato: Sereno Sereno 26 47 1014 vento: Nord S/SE 13